< < Back
Terminal Aerodrome Forecast


Current Version              Previous Versions:   1  2  3  4  5  6  7  8  9  

Terminal Aerodrome Forecast

351
FTUS44 KMOB 301720
TAFPNS
TAF
KPNS 301720Z 3018/3118 24010G19KT P6SM VCTS SCT028CB BKN040
     FM310300 20004KT P6SM BKN050
     FM310900 24002KT 4SM BR BKN005
     FM311500 27009KT P6SM FEW045 SCT250=

Latest METAR

822
SAUS70 KWBC 310300 RRF
MTRPNS
METAR KPNS 310253Z 24008KT 10SM CLR 20/17 A3015 RMK AO2 SLP213 T02000172
51013


USA.gov is the U.S. government's official web portal to all federal, state and local government web resources and services.